Time;durP1;ratioP1;P1;durP2;ratioP2;P2;SDS_P1;SDS_P2;PMS_P1;PMS_P2;Temp;Humidity;BMP_temperature;BMP_pressure;BME280_temperature;BME280_humidity;BME280_pressure;Samples;Min_cycle;Max_cycle;Signal;HPM_P1;HPM_P2
2022/09/30 00:03:48;;;;;;;64.32;32.25;;;;;;;17.97;100.00;100495.75;10376679;28;20045;-72
2022/09/30 00:08:49;;;;;;;39.47;18.85;;;;;;;17.73;100.00;100483.00;10384381;28;20045;-72
2022/09/30 00:13:52;;;;;;;22.60;11.25;;;;;;;17.60;100.00;100489.22;10395327;28;20045;-72
2022/09/30 00:18:57;;;;;;;14.10;9.57;;;;;;;17.55;100.00;100489.03;10382466;28;20425;-72
2022/09/30 00:23:59;;;;;;;12.88;7.45;;;;;;;17.47;100.00;100484.72;10415693;28;20037;-72
2022/09/30 00:29:00;;;;;;;13.13;7.50;;;;;;;17.50;100.00;100516.53;10416806;28;20531;-72
2022/09/30 00:34:08;;;;;;;13.45;7.50;;;;;;;17.45;100.00;100520.88;10416012;28;20049;-72
2022/09/30 00:39:14;;;;;;;19.52;11.55;;;;;;;16.85;100.00;100451.13;10402470;28;20034;-72
2022/09/30 00:44:50;;;;;;;14.50;9.20;;;;;;;17.43;100.00;100539.88;10374174;28;20046;-72
2022/09/30 00:49:52;;;;;;;17.30;9.13;;;;;;;17.44;100.00;100538.00;10374819;28;20522;-72
2022/09/30 00:54:56;;;;;;;16.52;8.05;;;;;;;17.46;100.00;100517.97;10374889;28;20490;-72
2022/09/30 00:59:57;;;;;;;12.77;7.93;;;;;;;17.56;100.00;100514.88;10374283;28;20391;-72
2022/09/30 01:04:58;;;;;;;13.23;7.75;;;;;;;17.45;100.00;100496.72;10373283;28;20050;-72
2022/09/30 01:10:00;;;;;;;14.13;8.55;;;;;;;17.60;100.00;100528.72;10373853;28;20041;-72
2022/09/30 01:15:01;;;;;;;15.77;8.02;;;;;;;17.00;100.00;100429.44;10373320;28;20068;-72
2022/09/30 01:20:41;;;;;;;14.25;8.57;;;;;;;17.18;100.00;100467.22;10373449;28;20041;-72
2022/09/30 01:25:54;;;;;;;10.48;8.32;;;;;;;17.66;100.00;100565.47;10374150;28;20048;-72
2022/09/30 01:31:21;;;;;;;9.70;7.80;;;;;;;17.19;100.00;100476.09;10374106;28;20502;-72
2022/09/30 01:36:34;;;;;;;14.10;8.40;;;;;;;17.77;100.00;100563.00;10373893;28;20077;-72
2022/09/30 01:42:07;;;;;;;9.43;8.25;;;;;;;17.76;100.00;100547.88;10373643;28;20466;-72
2022/09/30 01:47:34;;;;;;;12.48;8.07;;;;;;;17.78;100.00;100561.97;10372140;28;20054;-72
2022/09/30 01:53:04;;;;;;;10.45;7.93;;;;;;;17.76;100.00;100565.88;10371790;28;20068;-73
2022/09/30 01:58:29;;;;;;;12.23;8.38;;;;;;;17.79;100.00;100563.59;10368083;28;20058;-72
2022/09/30 02:03:35;;;;;;;24.30;9.93;;;;;;;17.12;100.00;100460.00;10372207;28;20073;-72
2022/09/30 02:09:03;;;;;;;14.63;9.18;;;;;;;17.65;100.00;100567.34;10372466;28;20124;-72
2022/09/30 02:14:16;;;;;;;14.80;8.98;;;;;;;17.50;100.00;100558.66;10370723;28;20037;-72
2022/09/30 02:19:37;;;;;;;18.77;9.07;;;;;;;17.30;100.00;100551.44;10371233;28;20048;-72
2022/09/30 02:24:42;;;;;;;16.90;8.75;;;;;;;17.20;100.00;100564.47;10372447;28;20042;-72
2022/09/30 02:29:49;;;;;;;37.10;9.73;;;;;;;16.97;100.00;100551.44;10372076;28;20092;-71
2022/09/30 02:34:55;;;;;;;22.17;9.23;;;;;;;16.99;100.00;100578.91;10391526;28;20099;-71
2022/09/30 02:40:05;;;;;;;17.90;9.25;;;;;;;16.93;100.00;100598.50;10412580;28;20056;-71
2022/09/30 02:45:10;;;;;;;25.65;10.13;;;;;;;16.29;100.00;100513.91;10411528;28;20041;-72
2022/09/30 02:50:42;;;;;;;13.30;8.70;;;;;;;16.76;100.00;100610.66;10412784;28;20061;-72
2022/09/30 02:56:15;;;;;;;60.67;10.98;;;;;;;16.73;100.00;100597.59;10410259;28;20056;-72
2022/09/30 03:01:16;;;;;;;36.58;10.50;;;;;;;16.52;100.00;100599.38;10404026;28;20052;-71
2022/09/30 03:06:18;;;;;;;49.92;10.68;;;;;;;16.49;100.00;100599.78;10392280;28;20077;-71
2022/09/30 03:11:22;;;;;;;33.53;9.38;;;;;;;16.46;100.00;100607.41;10413019;28;20080;-71
2022/09/30 03:16:35;;;;;;;54.10;20.95;;;;;;;14.98;100.00;100379.94;10419032;28;20099;-73
2022/09/30 03:21:51;;;;;;;60.25;13.73;;;;;;;16.41;100.00;100618.72;10418720;28;20132;-72
2022/09/30 03:27:04;;;;;;;29.80;11.18;;;;;;;16.49;100.00;100626.59;10418940;28;20557;-71
2022/09/30 03:32:11;;;;;;;58.53;12.00;;;;;;;16.48;100.00;100606.16;10418956;28;20049;-72
2022/09/30 03:37:27;;;;;;;48.90;16.65;;;;;;;16.65;100.00;100617.38;10420524;28;20049;-71
2022/09/30 03:42:44;;;;;;;32.80;10.68;;;;;;;16.80;100.00;100614.56;10417888;28;20048;-73
2022/09/30 03:47:49;;;;;;;77.70;13.85;;;;;;;17.13;100.00;100622.69;10404450;28;20071;-73
2022/09/30 03:52:51;;;;;;;25.15;9.70;;;;;;;17.55;100.00;100617.97;10418290;28;20058;-73
2022/09/30 03:57:53;;;;;;;35.72;9.93;;;;;;;17.51;100.00;100558.47;10415709;28;20037;-71
2022/09/30 04:02:54;;;;;;;25.08;9.75;;;;;;;18.40;100.00;100637.69;10390816;28;20099;-70
2022/09/30 04:07:54;;;;;;;21.05;8.90;;;;;;;18.11;100.00;100518.03;10413306;28;20386;-69
2022/09/30 04:12:56;;;;;;;17.90;8.65;;;;;;;19.45;100.00;100644.63;10378023;28;20050;-72
2022/09/30 04:17:58;;;;;;;16.13;7.43;;;;;;;19.59;100.00;100584.16;10375315;28;20394;-72
2022/09/30 04:23:00;;;;;;;16.58;7.97;;;;;;;20.34;100.00;100635.28;10375405;28;20049;-69
2022/09/30 04:28:01;;;;;;;19.98;6.72;;;;;;;20.43;100.00;100604.25;10375478;28;20096;-73
2022/09/30 04:33:01;;;;;;;13.75;7.05;;;;;;;20.24;100.00;100570.22;10374871;28;20048;-70
2022/09/30 04:38:06;;;;;;;9.55;6.35;;;;;;;20.55;99.35;100600.78;10372985;28;20132;-69
2022/09/30 04:43:06;;;;;;;10.75;5.88;;;;;;;20.83;97.75;100625.34;10374598;28;20042;-70
2022/09/30 04:48:07;;;;;;;7.72;5.50;;;;;;;20.87;96.35;100610.31;10374500;28;20109;-71
2022/09/30 04:53:11;;;;;;;12.38;6.22;;;;;;;21.30;95.11;100633.59;10389311;28;20062;-71
2022/09/30 04:58:12;;;;;;;;;;;;;;;21.90;92.23;100654.28;10374591;28;20050;-71
2022/09/30 05:03:12;;;;;;;7.95;5.55;;;;;;;21.52;92.59;100623.09;10374624;28;19940;-72
2022/09/30 05:08:14;;;;;;;11.40;5.85;;;;;;;21.81;90.87;100663.78;10374549;28;20041;-72
2022/09/30 05:13:15;;;;;;;8.57;5.88;;;;;;;21.71;89.89;100628.38;10373818;28;20505;-73
2022/09/30 05:18:17;;;;;;;9.52;5.15;;;;;;;22.22;89.41;100654.72;10374457;28;20074;-71
2022/09/30 05:23:19;;;;;;;13.43;6.15;;;;;;;22.30;87.92;100640.84;10374552;28;20558;-72
2022/09/30 05:28:19;;;;;;;8.88;5.05;;;;;;;22.06;85.68;100574.28;10373898;28;20038;-71
2022/09/30 05:33:20;;;;;;;12.23;5.85;;;;;;;22.68;84.94;100644.06;10373405;28;20053;-72
2022/09/30 05:38:21;;;;;;;13.82;8.10;;;;;;;23.00;84.07;100657.94;10373310;28;20557;-72
2022/09/30 05:43:22;;;;;;;13.35;5.90;;;;;;;23.06;81.76;100667.81;10372590;28;20073;-71
2022/09/30 05:48:24;;;;;;;17.70;10.40;;;;;;;22.58;80.42;100544.47;10372688;28;20037;-71
2022/09/30 05:53:25;;;;;;;18.40;14.25;;;;;;;23.20;80.00;100609.53;10373497;28;20141;-71
2022/09/30 05:58:26;;;;;;;16.45;13.48;;;;;;;23.00;78.63;100536.88;10373272;28;20038;-71
2022/09/30 06:03:27;;;;;;;18.40;15.18;;;;;;;23.95;77.70;100677.19;10372656;28;20108;-71
2022/09/30 06:08:28;;;;;;;20.52;15.63;;;;;;;24.05;75.66;100661.91;10372529;28;20065;-71
2022/09/30 06:13:28;;;;;;;13.65;8.23;;;;;;;24.18;74.83;100668.03;10371851;28;20049;-71
2022/09/30 06:18:30;;;;;;;14.02;5.72;;;;;;;24.51;74.29;100676.09;10372581;28;20457;-73
2022/09/30 06:23:33;;;;;;;7.55;3.90;;;;;;;24.17;73.47;100596.66;10373172;28;20048;-71
2022/09/30 06:28:34;;;;;;;;;;;;;;;25.05;72.05;100672.66;10372145;28;20037;-71
2022/09/30 06:33:35;;;;;;;6.97;2.90;;;;;;;25.03;71.79;100675.59;10371492;28;19921;-71
2022/09/30 06:38:36;;;;;;;6.35;2.45;;;;;;;24.90;70.32;100635.25;10372067;28;20425;-71
2022/09/30 06:43:38;;;;;;;4.68;2.30;;;;;;;25.18;66.62;100677.69;10376794;28;20700;-71
2022/09/30 06:48:39;;;;;;;11.95;4.47;;;;;;;25.16;66.65;100627.38;10380039;28;20042;-70
2022/09/30 06:53:40;;;;;;;9.77;3.08;;;;;;;25.38;65.96;100619.97;10380401;28;20061;-71
2022/09/30 06:58:44;;;;;;;10.77;2.40;;;;;;;25.71;64.69;100648.78;10379181;28;20128;-71
2022/09/30 07:03:45;;;;;;;12.60;2.35;;;;;;;25.80;63.91;100635.50;10379497;28;20041;-72
2022/09/30 07:08:46;;;;;;;6.13;2.45;;;;;;;26.05;62.54;100661.28;10379570;28;20049;-71
2022/09/30 07:13:48;;;;;;;7.15;2.50;;;;;;;25.98;61.58;100656.06;10378320;28;20100;-70
2022/09/30 07:18:49;;;;;;;22.02;3.70;;;;;;;26.09;61.64;100633.25;10378387;28;20049;-71
2022/09/30 07:23:51;;;;;;;4.03;1.90;;;;;;;26.37;59.92;100637.47;10378755;28;20490;-71
2022/09/30 07:28:52;;;;;;;14.40;2.47;;;;;;;26.27;58.74;100571.28;10378778;28;20116;-71
2022/09/30 07:33:55;;;;;;;7.85;1.88;;;;;;;26.69;57.31;100587.50;10378154;28;20052;-71
2022/09/30 07:38:56;;;;;;;33.17;2.80;;;;;;;27.18;56.82;100638.84;10377462;28;20510;-72
2022/09/30 07:44:01;;;;;;;10.85;3.20;;;;;;;27.25;55.73;100635.84;10377716;28;20080;-71
2022/09/30 07:49:07;;;;;;;10.10;2.20;;;;;;;27.31;55.54;100619.22;10377088;28;20038;-72
2022/09/30 07:54:12;;;;;;;11.27;2.00;;;;;;;27.28;53.30;100618.91;10376872;28;20062;-71
2022/09/30 07:59:14;;;;;;;7.70;2.30;;;;;;;27.44;54.33;100633.41;10376759;28;20525;-72
2022/09/30 08:04:17;;;;;;;4.75;1.67;;;;;;;27.40;52.55;100618.66;10376460;28;20325;-72
2022/09/30 08:09:21;;;;;;;7.00;2.20;;;;;;;27.44;51.83;100595.19;10376930;28;20084;-72
2022/09/30 08:14:25;;;;;;;13.18;2.53;;;;;;;27.81;52.27;100645.94;10376608;28;20080;-72
2022/09/30 08:19:28;;;;;;;17.05;2.15;;;;;;;27.72;50.98;100616.44;10376778;28;20101;-71
2022/09/30 08:24:29;;;;;;;7.55;2.25;;;;;;;27.56;51.97;100557.53;10376260;28;20498;-72
2022/09/30 08:29:30;;;;;;;7.25;2.03;;;;;;;28.03;51.02;100615.56;10376029;28;20129;-71
2022/09/30 08:34:34;;;;;;;6.10;1.80;;;;;;;27.70;49.71;100574.13;10375858;28;20046;-71
2022/09/30 08:39:38;;;;;;;11.35;2.13;;;;;;;28.27;50.55;100610.28;10375615;28;20107;-72
2022/09/30 08:44:45;;;;;;;13.18;2.42;;;;;;;28.46;48.33;100614.09;10375367;28;20080;-71
2022/09/30 08:49:56;;;;;;;9.20;1.88;;;;;;;28.62;48.77;100604.69;10376333;28;20045;-71
2022/09/30 08:54:57;;;;;;;10.00;2.35;;;;;;;28.53;48.80;100576.31;10374538;28;20099;-72
2022/09/30 09:00:06;;;;;;;9.65;2.42;;;;;;;28.62;47.58;100591.03;10374491;28;20045;-71
2022/09/30 09:05:15;;;;;;;8.73;1.75;;;;;;;28.28;48.23;100612.75;10374964;28;20537;-72
2022/09/30 09:10:26;;;;;;;5.53;2.35;;;;;;;28.53;47.74;100621.97;10373929;28;20445;-72
2022/09/30 09:16:04;;;;;;;7.85;2.05;;;;;;;28.70;46.40;100618.88;10374345;28;20486;-71
2022/09/30 09:21:30;;;;;;;6.90;1.80;;;;;;;28.70;45.66;100618.88;10374159;28;20042;-71
2022/09/30 09:26:35;;;;;;;18.60;2.63;;;;;;;28.99;46.04;100605.25;10373430;28;20081;-71
2022/09/30 09:31:37;;;;;;;11.07;2.10;;;;;;;29.23;45.92;100611.69;10374151;28;20389;-72
2022/09/30 09:38:23;;;;;;;10.55;2.03;;;;;;;29.26;45.96;100577.47;10373751;28;20037;-72
2022/09/30 09:43:17;;;;;;;6.40;1.83;;;;;;;29.35;44.94;100603.13;10373250;28;20048;-72
2022/09/30 09:48:18;;;;;;;7.97;2.15;;;;;;;29.13;46.62;100615.31;10362868;28;20497;-71
2022/09/30 09:53:52;;;;;;;7.18;2.15;;;;;;;29.38;45.46;100596.22;10373269;28;20157;-72
2022/09/30 09:59:08;;;;;;;7.15;2.00;;;;;;;29.41;44.98;100558.19;10372919;28;20055;-71
2022/09/30 10:04:15;;;;;;;6.88;2.00;;;;;;;29.30;45.20;100584.81;10372873;28;20045;-71
2022/09/30 10:09:24;;;;;;;25.70;2.50;;;;;;;29.58;45.17;100602.31;10372006;28;20529;-72
2022/09/30 10:14:25;;;;;;;17.45;2.35;;;;;;;29.82;45.19;100595.28;10372597;28;20050;-72
2022/09/30 10:19:28;;;;;;;8.55;2.05;;;;;;;29.94;44.00;100601.97;10372017;28;20056;-72
2022/09/30 10:24:30;;;;;;;10.55;2.30;;;;;;;29.55;44.89;100597.44;10372377;28;20042;-72
2022/09/30 10:29:34;;;;;;;8.07;2.33;;;;;;;28.64;46.23;100538.81;10371742;28;20069;-71
2022/09/30 10:34:36;;;;;;;5.10;2.00;;;;;;;29.19;45.47;100590.66;10372217;28;20056;-71
2022/09/30 10:39:40;;;;;;;9.35;1.85;;;;;;;29.40;44.69;100583.91;10372040;28;20117;-72
2022/09/30 10:45:03;;;;;;;9.75;2.20;;;;;;;29.06;45.29;100587.47;10372420;28;20049;-72
2022/09/30 10:50:15;;;;;;;13.18;2.50;;;;;;;29.32;43.87;100600.97;10371789;28;20062;-72
2022/09/30 10:55:43;;;;;;;9.30;1.98;;;;;;;29.04;45.95;100595.16;10371353;28;20576;-72
2022/09/30 11:00:48;;;;;;;13.13;2.38;;;;;;;28.39;46.58;100583.47;10368190;28;20065;-71
2022/09/30 11:05:49;;;;;;;5.40;2.25;;;;;;;27.86;47.03;100531.28;10371145;28;20107;-72
2022/09/30 11:10:56;;;;;;;13.55;2.30;;;;;;;28.02;46.30;100595.66;10371747;28;20509;-71
2022/09/30 11:16:21;;;;;;;6.38;1.63;;;;;;;27.88;44.95;100589.97;10370708;28;20089;-71
2022/09/30 11:21:41;;;;;;;17.42;2.45;;;;;;;28.08;47.16;100580.06;10371102;28;20077;-70
2022/09/30 11:27:00;;;;;;;17.17;2.42;;;;;;;28.57;45.13;100588.34;10371095;28;20044;-71
2022/09/30 11:32:29;;;;;;;7.80;2.30;;;;;;;28.79;44.80;100581.63;10378160;28;20045;-71
2022/09/30 11:37:36;;;;;;;15.65;2.40;;;;;;;28.88;44.22;100577.19;10378381;28;20116;-71
2022/09/30 11:42:52;;;;;;;55.15;3.88;;;;;;;28.74;44.04;100576.19;10377746;28;20489;-72
2022/09/30 11:48:14;;;;;;;5.60;1.90;;;;;;;28.49;45.01;100580.72;10377495;28;20056;-72
2022/09/30 11:53:40;;;;;;;5.60;2.00;;;;;;;28.70;44.53;100580.59;10377908;28;20492;-71
2022/09/30 11:58:52;;;;;;;5.43;1.83;;;;;;;28.41;43.69;100590.31;10377349;28;20049;-70
2022/09/30 12:03:59;;;;;;;10.60;2.85;;;;;;;27.79;44.75;100528.84;10397836;28;20041;-70
2022/09/30 12:09:20;;;;;;;6.40;2.20;;;;;;;28.25;43.90;100585.19;10405394;28;20132;-70
2022/09/30 12:14:30;;;;;;;5.70;2.60;;;;;;;28.32;43.56;100588.44;10396460;28;20132;-69
2022/09/30 12:19:49;;;;;;;13.15;2.58;;;;;;;28.43;43.48;100585.41;10394521;28;20034;-68
2022/09/30 12:24:50;;;;;;;10.07;2.13;;;;;;;28.26;43.79;100554.03;10389282;28;20129;-70
2022/09/30 12:30:16;;;;;;;10.15;2.10;;;;;;;28.19;44.50;100538.78;10380630;28;20042;-68
2022/09/30 12:35:29;;;;;;;4.95;1.70;;;;;;;28.62;43.41;100593.75;10391259;28;21398;-69
2022/09/30 12:40:54;;;;;;;8.13;2.10;;;;;;;28.53;43.25;100573.59;10394227;28;20041;-70
2022/09/30 12:46:11;;;;;;;6.40;1.80;;;;;;;28.20;43.50;100534.94;10382154;28;20037;-69
2022/09/30 12:51:23;;;;;;;9.52;2.00;;;;;;;28.50;43.59;100593.28;10384318;28;20065;-68
2022/09/30 12:56:28;;;;;;;6.97;2.10;;;;;;;28.14;43.73;100546.97;10393189;28;20071;-68
2022/09/30 13:01:34;;;;;;;5.05;1.75;;;;;;;27.59;43.85;100480.56;10395761;28;20095;-70
2022/09/30 13:06:44;;;;;;;16.33;2.17;;;;;;;28.15;44.20;100588.75;10390833;28;20064;-69
2022/09/30 13:11:47;;;;;;;6.38;1.80;;;;;;;28.12;43.65;100616.63;10387554;28;20086;-69
2022/09/30 13:17:06;;;;;;;11.73;2.20;;;;;;;28.00;44.62;100606.06;10389424;28;20446;-68
2022/09/30 13:22:28;;;;;;;10.30;4.78;;;;;;;27.68;44.54;100618.09;10390746;28;20133;-69
2022/09/30 13:27:37;;;;;;;7.78;2.40;;;;;;;26.95;45.62;100549.34;10385411;28;20045;-70
2022/09/30 13:32:40;;;;;;;7.35;2.38;;;;;;;27.21;46.16;100604.75;10393484;28;20063;-69
2022/09/30 13:37:40;;;;;;;9.97;2.30;;;;;;;27.22;45.82;100620.00;10390149;28;20052;-69
2022/09/30 13:42:50;;;;;;;6.03;2.00;;;;;;;26.78;45.34;100560.53;10390765;28;20498;-70
2022/09/30 13:48:34;;;;;;;11.27;2.25;;;;;;;27.20;46.02;100631.22;10389650;28;20084;-71
2022/09/30 13:53:44;;;;;;;12.23;2.45;;;;;;;27.07;45.89;100626.25;10369402;28;20418;-70
2022/09/30 13:59:08;;;;;;;79.80;5.97;;;;;;;26.25;46.90;100510.81;10383187;28;21206;-70
2022/09/30 14:04:39;;;;;;;294.73;20.92;;;;;;;26.73;50.49;100636.81;10371697;28;20049;-70
2022/09/30 14:10:02;;;;;;;160.93;13.88;;;;;;;26.46;50.72;100635.06;10374550;28;20041;-70
2022/09/30 14:15:32;;;;;;;190.50;16.02;;;;;;;26.18;51.83;100645.28;10390268;28;20037;-69
2022/09/30 14:20:55;;;;;;;52.80;7.88;;;;;;;25.87;51.27;100644.28;10389219;28;20381;-70
2022/09/30 14:26:40;;;;;;;24.67;11.23;;;;;;;25.63;51.08;100648.44;10386456;28;20048;-69
2022/09/30 14:31:45;;;;;;;22.77;4.97;;;;;;;25.48;50.75;100654.56;10302914;28;20073;-69
2022/09/30 14:36:49;;;;;;;24.13;5.00;;;;;;;25.35;51.01;100655.84;10367553;28;20054;-70
2022/09/30 14:41:56;;;;;;;30.00;5.63;;;;;;;25.21;51.57;100669.03;10381185;28;20052;-69
2022/09/30 14:47:00;;;;;;;50.33;7.93;;;;;;;25.05;51.93;100659.88;10387110;28;20127;-70
2022/09/30 14:52:02;;;;;;;53.13;15.32;;;;;;;24.82;52.66;100657.44;10387452;28;20057;-70
2022/09/30 14:57:15;;;;;;;69.03;17.77;;;;;;;24.62;53.96;100676.22;10387140;28;20033;-70
2022/09/30 15:02:19;;;;;;;127.30;19.48;;;;;;;24.27;55.59;100666.53;10381582;28;20042;-69
2022/09/30 15:07:20;;;;;;;72.88;28.63;;;;;;;23.97;55.84;100665.03;10393048;28;20091;-70
2022/09/30 15:12:22;;;;;;;86.25;22.58;;;;;;;23.59;57.39;100654.91;10377870;28;20556;-70
2022/09/30 15:17:36;;;;;;;86.47;18.67;;;;;;;23.52;60.28;100687.63;10376639;28;20061;-70
2022/09/30 15:22:37;;;;;;;71.07;21.83;;;;;;;23.25;59.95;100676.56;10379175;28;20065;-71
2022/09/30 15:27:38;;;;;;;62.78;17.17;;;;;;;23.05;61.31;100698.69;10378030;28;20073;-70
2022/09/30 15:32:39;;;;;;;76.88;18.83;;;;;;;22.78;62.07;100682.16;10376349;28;20041;-70
2022/09/30 15:37:40;;;;;;;51.20;15.93;;;;;;;22.47;62.52;100670.72;10378426;28;20133;-70
2022/09/30 15:42:50;;;;;;;40.55;15.15;;;;;;;22.53;63.59;100696.81;10377079;28;20050;-70
2022/09/30 15:47:58;;;;;;;57.10;15.05;;;;;;;22.35;64.84;100710.50;10376857;28;20041;-71
2022/09/30 15:53:16;;;;;;;43.47;13.63;;;;;;;22.20;64.57;100721.00;10375789;28;20407;-69
2022/09/30 15:58:37;;;;;;;74.22;14.68;;;;;;;21.97;65.95;100714.47;10377354;28;20046;-70
2022/09/30 16:03:45;;;;;;;76.07;14.43;;;;;;;21.84;65.16;100720.94;10377975;28;20038;-71
2022/09/30 16:08:52;;;;;;;52.45;11.20;;;;;;;21.71;65.29;100723.84;10375036;28;20046;-70
2022/09/30 16:13:56;;;;;;;29.13;8.48;;;;;;;21.49;65.00;100711.94;10374983;28;20052;-70
2022/09/30 16:19:00;;;;;;;36.20;9.70;;;;;;;21.52;65.74;100733.09;10377005;28;20559;-71
2022/09/30 16:24:00;;;;;;;25.80;8.13;;;;;;;21.07;65.85;100668.66;10376952;28;20489;-69
2022/09/30 16:29:03;;;;;;;32.67;9.43;;;;;;;21.26;66.41;100715.34;10394277;28;20099;-71
2022/09/30 16:34:04;;;;;;;43.72;16.38;;;;;;;20.82;66.88;100664.22;10417790;28;20049;-71
2022/09/30 16:39:05;;;;;;;40.83;16.00;;;;;;;21.15;67.48;100747.50;10416469;28;20476;-69
2022/09/30 16:44:06;;;;;;;40.83;15.25;;;;;;;20.58;68.00;100675.91;10415218;28;20128;-72
2022/09/30 16:49:14;;;;;;;37.83;13.23;;;;;;;20.81;69.68;100746.25;10415865;28;20374;-72
2022/09/30 16:54:15;;;;;;;40.58;8.27;;;;;;;20.75;68.62;100744.44;10416651;28;20064;-70
2022/09/30 16:59:17;;;;;;;17.33;5.75;;;;;;;20.68;68.69;100752.63;10414300;28;20052;-70
2022/09/30 17:04:17;;;;;;;25.33;9.77;;;;;;;20.63;68.89;100746.25;10414996;28;20045;-70
2022/09/30 17:09:19;;;;;;;37.97;10.18;;;;;;;20.58;69.31;100752.34;10415124;28;20405;-71
2022/09/30 17:14:19;;;;;;;30.35;9.93;;;;;;;20.50;70.03;100752.59;10414576;28;20394;-71
2022/09/30 17:19:21;;;;;;;35.78;10.85;;;;;;;20.42;70.58;100760.97;10414678;28;20041;-70
2022/09/30 17:24:22;;;;;;;53.35;19.45;;;;;;;20.37;71.35;100769.75;10414643;28;20037;-69
2022/09/30 17:29:23;;;;;;;61.70;24.20;;;;;;;20.30;71.17;100758.16;10400591;28;20468;-70
2022/09/30 17:34:26;;;;;;;127.78;53.10;;;;;;;20.36;71.21;100767.25;10375925;28;20045;-71
2022/09/30 17:39:27;;;;;;;211.37;59.40;;;;;;;19.88;71.42;100698.59;10387470;28;20042;-71
2022/09/30 17:44:28;;;;;;;134.93;51.22;;;;;;;19.65;71.68;100672.22;10386967;28;20042;-71
2022/09/30 17:49:35;;;;;;;93.63;44.85;;;;;;;20.19;73.22;100773.22;10387234;28;20047;-70
2022/09/30 17:54:36;;;;;;;148.15;52.22;;;;;;;20.00;72.81;100748.06;10386558;28;20053;-70
2022/09/30 17:59:37;;;;;;;72.22;23.85;;;;;;;19.96;72.82;100759.53;10383058;28;20034;-70
2022/09/30 18:04:38;;;;;;;41.88;16.88;;;;;;;19.96;73.17;100767.59;10387973;28;20088;-70
2022/09/30 18:09:38;;;;;;;21.52;9.15;;;;;;;19.85;74.18;100766.44;10387410;28;20069;-70
2022/09/30 18:14:39;;;;;;;23.38;6.93;;;;;;;19.75;75.15;100766.09;10413172;28;20155;-70
2022/09/30 18:19:40;;;;;;;24.83;9.38;;;;;;;19.32;76.00;100712.84;10397220;28;20061;-71
2022/09/30 18:30:01;;;;;;;68.47;30.33;;;;;;;19.40;77.60;100769.19;10412015;28;20037;-70
2022/09/30 18:35:06;;;;;;;79.97;38.35;;;;;;;19.14;78.31;100744.06;10412082;28;20114;-70
2022/09/30 18:40:07;;;;;;;75.82;28.98;;;;;;;18.80;78.61;100687.88;10417534;28;20120;-70
2022/09/30 18:45:11;;;;;;;139.75;89.97;;;;;;;19.11;79.31;100749.84;10421127;28;20051;-70
2022/09/30 18:50:13;;;;;;;627.47;560.25;;;;;;;18.94;79.28;100751.38;10420751;28;20401;-70
2022/09/30 18:55:14;;;;;;;566.45;503.95;;;;;;;18.97;80.00;100767.13;10420810;28;20136;-71
2022/09/30 19:00:16;;;;;;;263.27;191.25;;;;;;;18.88;80.31;100773.78;10420472;28;20120;-70
2022/09/30 19:05:17;;;;;;;46.92;29.27;;;;;;;18.63;80.93;100749.38;10419742;28;20049;-72
2022/09/30 19:10:18;;;;;;;43.17;28.83;;;;;;;18.61;81.55;100775.69;10419140;28;20554;-70
2022/09/30 19:15:19;;;;;;;22.75;18.33;;;;;;;18.43;81.45;100741.34;10419523;28;20046;-70
2022/09/30 19:20:20;;;;;;;112.32;78.82;;;;;;;18.59;82.37;100767.81;10419191;28;20569;-70
2022/09/30 19:25:21;;;;;;;118.15;82.55;;;;;;;18.47;82.59;100756.03;10418831;28;20037;-71
2022/09/30 19:30:22;;;;;;;92.97;70.10;;;;;;;18.65;81.50;100761.56;10419139;28;20401;-70
2022/09/30 19:35:25;;;;;;;48.88;32.40;;;;;;;18.39;79.42;100686.31;10412387;28;20064;-70
2022/09/30 19:40:26;;;;;;;24.65;13.98;;;;;;;18.99;78.08;100751.56;10416313;28;20037;-72
2022/09/30 19:45:27;;;;;;;12.77;7.10;;;;;;;19.23;76.84;100773.41;10422509;28;20131;-70
2022/09/30 19:50:28;;;;;;;14.80;5.05;;;;;;;19.33;76.38;100777.31;10417756;28;20497;-70
2022/09/30 19:55:29;;;;;;;11.80;4.72;;;;;;;19.33;76.54;100768.41;10418100;28;20045;-70
2022/09/30 20:00:30;;;;;;;10.85;4.78;;;;;;;19.35;77.01;100769.00;10417548;28;20045;-71
2022/09/30 20:05:31;;;;;;;10.30;4.35;;;;;;;19.34;76.36;100767.34;10418238;28;20490;-69
2022/09/30 20:10:32;;;;;;;11.48;5.05;;;;;;;19.32;76.00;100772.13;10418599;28;20041;-69
2022/09/30 20:15:51;;;;;;;16.27;5.88;;;;;;;19.21;76.61;100772.81;10417670;28;20041;-69
2022/09/30 20:20:52;;;;;;;15.93;6.43;;;;;;;19.03;78.23;100770.81;10417422;28;20033;-69
2022/09/30 20:25:53;;;;;;;16.90;5.65;;;;;;;18.60;78.61;100726.41;10417507;28;20045;-69
2022/09/30 20:30:54;;;;;;;13.43;6.88;;;;;;;18.73;79.11;100767.78;10418010;28;20103;-69
2022/09/30 20:35:59;;;;;;;28.73;9.93;;;;;;;18.66;79.97;100778.53;10416914;28;20123;-69
2022/09/30 20:41:02;;;;;;;32.97;10.30;;;;;;;18.51;80.81;100791.41;10416639;28;20033;-69
2022/09/30 20:46:06;;;;;;;23.48;8.57;;;;;;;18.23;81.01;100761.03;10416012;28;20041;-70
2022/09/30 20:51:14;;;;;;;27.75;6.03;;;;;;;18.30;82.61;100795.16;10415681;28;20524;-69
2022/09/30 20:56:14;;;;;;;30.48;10.57;;;;;;;17.68;82.16;100712.00;10399622;28;20515;-70
2022/09/30 21:01:18;;;;;;;29.33;9.10;;;;;;;17.72;83.29;100740.09;10389289;28;20049;-70
2022/09/30 21:06:23;;;;;;;18.47;7.07;;;;;;;17.95;83.81;100790.00;10388082;28;20128;-69
2022/09/30 21:11:24;;;;;;;27.10;6.43;;;;;;;17.86;84.14;100785.81;10381621;28;20049;-70
2022/09/30 21:16:25;;;;;;;15.65;6.18;;;;;;;17.65;84.88;100759.94;10389108;28;20049;-69
2022/09/30 21:21:26;;;;;;;14.38;6.13;;;;;;;16.84;84.80;100642.63;10393621;28;20052;-70
2022/09/30 21:26:27;;;;;;;19.48;6.50;;;;;;;17.59;85.32;100772.34;10378477;28;20052;-69
2022/09/30 21:31:27;;;;;;;18.00;7.25;;;;;;;17.67;85.99;100785.56;10407122;28;20041;-69
2022/09/30 21:36:28;;;;;;;36.03;8.65;;;;;;;17.53;86.28;100791.97;10409076;28;20038;-69
2022/09/30 21:41:31;;;;;;;17.13;7.15;;;;;;;17.53;87.49;100792.78;10373559;28;20046;-70
2022/09/30 21:46:33;;;;;;;28.52;11.02;;;;;;;17.41;87.85;100780.13;10373365;28;20468;-69
2022/09/30 21:51:34;;;;;;;33.50;8.48;;;;;;;17.40;87.61;100783.84;10373084;28;20088;-69
2022/09/30 21:56:35;;;;;;;28.63;8.00;;;;;;;17.48;87.51;100799.78;10373259;28;20077;-69
2022/09/30 22:01:36;;;;;;;29.17;11.73;;;;;;;17.41;88.36;100801.59;10372961;28;20061;-69
2022/09/30 22:06:37;;;;;;;45.53;15.77;;;;;;;17.33;88.91;100805.31;10372647;28;20064;-69
2022/09/30 22:11:38;;;;;;;30.13;12.52;;;;;;;17.11;89.09;100794.69;10372340;28;20046;-69
2022/09/30 22:16:39;;;;;;;44.83;12.88;;;;;;;17.20;89.32;100799.88;10371990;28;20092;-69
2022/09/30 22:21:40;;;;;;;30.58;12.05;;;;;;;16.74;89.87;100726.16;10372403;28;20069;-69
2022/09/30 22:26:41;;;;;;;17.90;7.68;;;;;;;17.02;89.59;100785.16;10372430;28;20042;-69
2022/09/30 22:31:41;;;;;;;17.17;6.88;;;;;;;17.02;90.29;100787.84;10371479;28;20133;-69
2022/09/30 22:42:03;;;;;;;22.30;7.15;;;;;;;16.73;91.43;100778.16;10371389;28;20042;-69
2022/09/30 22:47:06;;;;;;;29.17;7.00;;;;;;;16.80;91.75;100797.00;10382140;28;20049;-69
2022/09/30 22:52:08;;;;;;;29.42;6.70;;;;;;;16.72;91.58;100787.25;10371442;28;20058;-69
2022/09/30 22:57:10;;;;;;;25.48;6.55;;;;;;;16.67;92.32;100790.50;10371931;28;20042;-69
2022/09/30 23:02:13;;;;;;;22.33;6.68;;;;;;;16.57;93.36;100794.56;10372264;28;20046;-69
2022/09/30 23:07:14;;;;;;;42.45;18.17;;;;;;;16.57;92.90;100791.88;10370938;28;20041;-69
2022/09/30 23:12:14;;;;;;;31.45;14.77;;;;;;;16.31;92.69;100771.09;10371291;28;20050;-69
2022/09/30 23:17:15;;;;;;;29.20;12.48;;;;;;;15.92;92.71;100700.91;10370941;28;20042;-72
2022/09/30 23:22:17;;;;;;;20.23;9.63;;;;;;;16.48;92.88;100798.41;10372535;28;20127;-69